Time;durP1;ratioP1;P1;durP2;ratioP2;P2;SDS_P1;SDS_P2;PMS_P1;PMS_P2;Temp;Humidity;BMP_temperature;BMP_pressure;BME280_temperature;BME280_humidity;BME280_pressure;Samples;Min_cycle;Max_cycle;Signal;HPM_P1;HPM_P2
2021/07/11 00:01:09;;;;;;;12.90;8.63;;;;;;;22.35;100.00;101052.09;5011666;28;20198;-70
2021/07/11 00:03:34;;;;;;;19.20;9.73;;;;;;;22.35;100.00;101054.78;5011895;28;20528;-71
2021/07/11 00:06:00;;;;;;;20.43;10.70;;;;;;;22.32;100.00;101052.44;5011791;28;20162;-71
2021/07/11 00:08:25;;;;;;;16.67;9.73;;;;;;;22.26;100.00;101053.97;4994534;28;20254;-71
2021/07/11 00:10:51;;;;;;;14.00;9.90;;;;;;;22.25;100.00;101046.94;5012706;28;20175;-72
2021/07/11 00:13:17;;;;;;;17.60;11.97;;;;;;;22.22;100.00;101049.09;5012074;28;20617;-71
2021/07/11 00:15:43;;;;;;;13.50;9.93;;;;;;;22.15;100.00;101049.81;5012022;28;20417;-70
2021/07/11 00:18:11;;;;;;;12.97;9.73;;;;;;;22.19;100.00;101054.81;5012099;28;20232;-72
2021/07/11 00:20:36;;;;;;;16.70;9.53;;;;;;;22.19;100.00;101049.47;5011272;28;20238;-74
2021/07/11 00:23:02;;;;;;;11.37;9.20;;;;;;;22.19;100.00;101052.97;5012004;28;20401;-71
2021/07/11 00:25:28;;;;;;;12.93;10.10;;;;;;;22.24;100.00;101049.78;5012184;28;20622;-72
2021/07/11 00:27:53;;;;;;;15.43;9.60;;;;;;;22.27;100.00;101047.59;5012095;28;20394;-71
2021/07/11 00:30:19;;;;;;;12.80;9.20;;;;;;;22.30;100.00;101043.75;5012037;28;20166;-76
2021/07/11 00:32:46;;;;;;;15.37;10.13;;;;;;;22.31;100.00;101043.59;5011800;28;20214;-73
2021/07/11 00:35:12;;;;;;;14.93;10.37;;;;;;;22.29;100.00;101029.53;5011915;28;20164;-71
2021/07/11 00:37:37;;;;;;;12.13;9.63;;;;;;;22.28;100.00;101035.03;5012351;28;20382;-75
2021/07/11 00:40:08;;;;;;;11.37;10.10;;;;;;;22.27;100.00;101028.03;5012023;28;20146;-76
2021/07/11 00:42:33;;;;;;;12.93;9.90;;;;;;;22.33;100.00;101027.34;5011969;28;20215;-75
2021/07/11 00:44:59;;;;;;;15.50;10.93;;;;;;;22.27;100.00;101025.34;5011988;28;20421;-70
2021/07/11 00:47:25;;;;;;;11.67;10.03;;;;;;;22.24;100.00;101034.56;5011673;28;20190;-71
2021/07/11 00:49:50;;;;;;;15.30;10.73;;;;;;;22.24;100.00;101029.22;5012043;28;20162;-71
2021/07/11 00:52:16;;;;;;;13.70;9.30;;;;;;;22.25;100.00;101024.69;5012161;28;20406;-76
2021/07/11 00:54:42;;;;;;;15.20;9.67;;;;;;;22.23;100.00;101024.03;5012133;28;20503;-71
2021/07/11 00:57:07;;;;;;;14.10;9.73;;;;;;;22.20;100.00;101030.53;5011839;28;20151;-71
2021/07/11 00:59:36;;;;;;;13.57;9.73;;;;;;;22.15;100.00;101024.88;5011658;28;20190;-72
2021/07/11 01:02:32;;;;;;;11.93;9.07;;;;;;;22.11;100.00;101023.53;5011968;28;20242;-71
2021/07/11 01:05:06;;;;;;;14.27;10.03;;;;;;;22.08;100.00;101021.22;4997856;28;20425;-72
2021/07/11 01:07:36;;;;;;;15.80;10.87;;;;;;;22.07;100.00;101024.88;5011849;28;20481;-71
2021/07/11 01:10:09;;;;;;;12.00;9.30;;;;;;;22.09;100.00;101023.72;5011836;28;20405;-73
2021/07/11 01:12:43;;;;;;;14.63;10.80;;;;;;;22.12;100.00;101019.84;5011405;28;20432;-71
2021/07/11 01:15:09;;;;;;;15.33;9.03;;;;;;;22.11;100.00;101028.91;5011771;28;20768;-73
2021/07/11 01:17:35;;;;;;;18.23;9.67;;;;;;;22.12;100.00;101026.03;5011821;28;20961;-72
2021/07/11 01:20:18;;;;;;;15.80;9.33;;;;;;;22.12;100.00;101017.19;5011554;28;20429;-72
2021/07/11 01:22:48;;;;;;;12.53;9.83;;;;;;;22.13;100.00;101018.84;5011940;28;20811;-72
2021/07/11 01:25:36;;;;;;;13.50;10.10;;;;;;;22.18;100.00;101021.84;5011471;28;20402;-70
2021/07/11 01:28:05;;;;;;;10.60;9.37;;;;;;;22.21;100.00;101020.66;5011422;28;20452;-71
2021/07/11 01:30:32;;;;;;;14.00;8.80;;;;;;;22.18;100.00;101021.03;5011501;28;20448;-70
2021/07/11 01:32:58;;;;;;;15.23;9.20;;;;;;;22.16;100.00;101018.53;5011278;28;20467;-71
2021/07/11 01:35:24;;;;;;;12.30;9.73;;;;;;;22.17;100.00;101012.16;5015311;28;20393;-73
2021/07/11 01:37:52;;;;;;;18.97;9.67;;;;;;;22.17;100.00;101009.47;5014638;28;20404;-71
2021/07/11 01:40:19;;;;;;;12.00;8.27;;;;;;;22.22;100.00;101001.78;5015295;28;20396;-71
2021/07/11 01:42:46;;;;;;;11.03;9.03;;;;;;;22.26;100.00;101008.44;5014292;28;20915;-71
2021/07/11 01:45:13;;;;;;;14.97;8.80;;;;;;;22.25;100.00;101006.78;5014745;28;20768;-74
2021/07/11 01:47:41;;;;;;;13.40;9.20;;;;;;;22.26;100.00;101005.75;5014613;28;20523;-71
2021/07/11 01:50:09;;;;;;;10.90;7.90;;;;;;;22.26;100.00;100992.38;5014356;28;20449;-71
2021/07/11 01:52:35;;;;;;;12.40;9.30;;;;;;;22.29;100.00;101001.91;5014700;28;20417;-74
2021/07/11 01:55:03;;;;;;;13.13;8.03;;;;;;;22.32;100.00;100988.19;5014864;28;20382;-72
2021/07/11 01:57:28;;;;;;;10.60;8.03;;;;;;;22.36;100.00;100992.16;5014793;28;20899;-70
2021/07/11 01:59:54;;;;;;;9.77;7.67;;;;;;;22.41;100.00;100987.97;5014913;28;20385;-73
2021/07/11 02:02:19;;;;;;;13.50;8.07;;;;;;;22.43;100.00;100991.31;5014331;28;20188;-71
2021/07/11 02:04:45;;;;;;;13.00;7.60;;;;;;;22.47;100.00;100990.97;5014926;28;20155;-72
2021/07/11 02:07:10;;;;;;;13.57;8.10;;;;;;;22.53;100.00;100991.13;5014297;28;20194;-69
2021/07/11 02:09:36;;;;;;;10.17;7.90;;;;;;;22.59;100.00;100985.03;5014417;28;20166;-74
2021/07/11 02:12:05;;;;;;;13.07;7.50;;;;;;;22.67;100.00;100994.88;5014392;28;20700;-73
2021/07/11 02:14:34;;;;;;;10.33;7.60;;;;;;;22.65;100.00;100992.38;5014554;28;20268;-73
2021/07/11 02:16:59;;;;;;;12.90;7.10;;;;;;;22.69;100.00;100984.84;5014378;28;20957;-71
2021/07/11 02:19:25;;;;;;;9.83;7.50;;;;;;;22.71;100.00;100980.13;5014230;28;20451;-71
2021/07/11 02:21:53;;;;;;;11.20;7.13;;;;;;;22.76;100.00;100976.94;5014154;28;20178;-71
2021/07/11 02:24:20;;;;;;;14.20;8.17;;;;;;;22.83;100.00;100983.28;5014082;28;20801;-71
2021/07/11 02:26:47;;;;;;;8.90;7.43;;;;;;;22.92;100.00;100975.03;5014285;28;20852;-71
2021/07/11 02:29:12;;;;;;;8.03;6.20;;;;;;;22.97;100.00;100979.84;5013975;28;20390;-72
2021/07/11 02:31:42;;;;;;;10.57;7.10;;;;;;;22.98;100.00;100982.38;5013912;28;20457;-72
2021/07/11 02:34:12;;;;;;;9.57;7.40;;;;;;;22.92;100.00;100983.06;5013803;28;20162;-74
2021/07/11 02:36:44;;;;;;;16.30;7.57;;;;;;;22.89;100.00;100983.41;5013945;28;20398;-73
2021/07/11 02:39:15;;;;;;;14.63;8.30;;;;;;;22.81;100.00;100983.41;5014305;28;20385;-74
2021/07/11 02:41:56;;;;;;;10.80;7.13;;;;;;;22.73;100.00;100980.78;5013660;28;20401;-74
2021/07/11 02:44:22;;;;;;;11.13;7.40;;;;;;;22.66;100.00;100990.53;5013487;28;20494;-72
2021/07/11 02:46:56;;;;;;;12.63;7.40;;;;;;;22.66;100.00;100990.53;5013303;28;20445;-71
2021/07/11 02:49:25;;;;;;;12.10;8.47;;;;;;;22.64;100.00;100990.72;5013529;28;20393;-73
2021/07/11 02:51:55;;;;;;;12.60;7.50;;;;;;;22.62;100.00;100989.22;5013978;28;20398;-71
2021/07/11 02:54:26;;;;;;;13.40;8.00;;;;;;;22.59;100.00;100987.72;5013678;28;20402;-73
2021/07/11 02:56:57;;;;;;;14.10;7.67;;;;;;;22.54;100.00;100994.63;5012874;28;20414;-71
2021/07/11 02:59:23;;;;;;;15.87;8.00;;;;;;;22.58;100.00;100993.25;5012639;28;20959;-71
2021/07/11 03:01:50;;;;;;;12.00;7.87;;;;;;;22.54;100.00;100995.47;5013689;28;20382;-75
2021/07/11 03:04:18;;;;;;;12.37;8.07;;;;;;;22.57;100.00;100994.28;5013227;28;20443;-71
2021/07/11 03:06:44;;;;;;;9.33;7.00;;;;;;;22.61;100.00;100992.94;5013523;28;21004;-73
2021/07/11 03:09:09;;;;;;;9.77;8.20;;;;;;;22.58;100.00;100995.94;5013362;28;20401;-72
2021/07/11 03:11:40;;;;;;;14.07;8.17;;;;;;;22.67;100.00;101003.78;5013196;28;20150;-72
2021/07/11 03:14:08;;;;;;;14.07;7.20;;;;;;;22.64;100.00;100997.91;5012994;28;20170;-73
2021/07/11 03:16:37;;;;;;;17.40;7.87;;;;;;;22.66;100.00;100996.72;5013268;28;20444;-74
2021/07/11 03:19:03;;;;;;;10.00;7.57;;;;;;;22.62;100.00;101002.63;5012975;28;20401;-73
2021/07/11 03:21:30;;;;;;;10.87;8.10;;;;;;;22.62;100.00;101000.78;5013181;28;20798;-76
2021/07/11 03:23:56;;;;;;;13.27;8.00;;;;;;;22.63;100.00;101010.47;5013185;28;20245;-74
2021/07/11 03:26:23;;;;;;;12.03;7.90;;;;;;;22.56;100.00;101009.50;5013060;28;20551;-72
2021/07/11 03:28:50;;;;;;;11.10;8.40;;;;;;;22.72;100.00;101013.97;5013193;28;20397;-74
2021/07/11 03:31:16;;;;;;;13.27;7.97;;;;;;;22.71;100.00;101004.25;5013045;28;20397;-72
2021/07/11 03:33:52;;;;;;;11.87;8.40;;;;;;;22.64;100.00;101014.00;5012369;28;20400;-72
2021/07/11 03:36:19;;;;;;;13.03;8.20;;;;;;;22.72;100.00;101005.91;5012490;28;20788;-73
2021/07/11 03:38:54;;;;;;;11.60;8.63;;;;;;;22.75;100.00;101010.94;5012517;28;20398;-73
2021/07/11 03:41:24;;;;;;;11.37;8.43;;;;;;;22.86;100.00;101013.25;5012975;28;20454;-72
2021/07/11 03:43:53;;;;;;;14.80;8.47;;;;;;;23.00;100.00;101011.66;5012756;28;20405;-73
2021/07/11 03:46:22;;;;;;;24.70;10.43;;;;;;;23.00;100.00;101010.84;5012291;28;20444;-72
2021/07/11 03:48:56;;;;;;;12.33;9.20;;;;;;;23.04;100.00;101006.78;5012356;28;20430;-72
2021/07/11 03:51:29;;;;;;;10.63;7.70;;;;;;;23.09;100.00;101012.44;5012664;28;20764;-73
2021/07/11 03:53:57;;;;;;;12.43;8.33;;;;;;;23.14;100.00;101010.06;5012713;28;20389;-71
2021/07/11 03:56:28;;;;;;;13.40;7.97;;;;;;;23.21;100.00;101011.88;5011943;28;20958;-71
2021/07/11 03:58:56;;;;;;;10.93;8.10;;;;;;;23.10;100.00;101011.44;5012624;28;20827;-71
2021/07/11 04:01:25;;;;;;;13.50;8.00;;;;;;;23.08;100.00;101008.94;5012794;28;20385;-72
2021/07/11 04:03:53;;;;;;;16.03;7.90;;;;;;;23.11;100.00;101005.06;5012555;28;20390;-71
2021/07/11 04:06:20;;;;;;;9.33;7.23;;;;;;;23.28;100.00;101014.69;5012457;28;20878;-71
2021/07/11 04:08:46;;;;;;;14.73;8.83;;;;;;;23.34;100.00;101000.53;5012595;28;20396;-70
2021/07/11 04:11:12;;;;;;;12.23;7.93;;;;;;;23.40;100.00;100999.81;5012405;28;20463;-71
2021/07/11 04:13:38;;;;;;;12.07;8.13;;;;;;;23.42;100.00;101003.16;5012464;28;20409;-72
2021/07/11 04:16:07;;;;;;;10.83;8.00;;;;;;;23.53;100.00;100992.00;5012779;28;20700;-74
2021/07/11 04:18:43;;;;;;;10.60;7.80;;;;;;;23.65;100.00;100995.09;5012379;28;20161;-72
2021/07/11 04:21:12;;;;;;;15.03;8.17;;;;;;;23.64;100.00;100997.97;5012126;28;20492;-71
2021/07/11 04:23:39;;;;;;;9.07;7.13;;;;;;;23.75;100.00;100990.31;5011224;28;20425;-73
2021/07/11 04:26:05;;;;;;;12.87;9.20;;;;;;;23.94;100.00;100991.63;5011969;28;20910;-74
2021/07/11 04:28:33;;;;;;;14.23;9.47;;;;;;;24.01;100.00;100992.56;5011803;28;20791;-73
2021/07/11 04:31:04;;;;;;;12.27;7.47;;;;;;;24.10;100.00;100990.63;5012166;28;20393;-72
2021/07/11 04:33:31;;;;;;;13.50;9.00;;;;;;;24.27;100.00;100985.94;5011710;28;20448;-72
2021/07/11 04:35:57;;;;;;;10.17;7.97;;;;;;;24.40;100.00;100993.34;5011906;28;20395;-73
2021/07/11 04:38:23;;;;;;;11.70;7.70;;;;;;;24.58;100.00;100996.50;5011679;28;20405;-74
2021/07/11 04:40:49;;;;;;;13.40;9.47;;;;;;;24.63;100.00;100997.56;5011944;28;20468;-71
2021/07/11 04:43:16;;;;;;;9.50;7.73;;;;;;;24.73;100.00;100993.78;5011526;28;20197;-70
2021/07/11 04:45:43;;;;;;;11.10;8.73;;;;;;;24.73;100.00;100997.28;5012149;28;20212;-72
2021/07/11 04:48:08;;;;;;;8.70;7.47;;;;;;;24.82;100.00;101004.22;5011785;28;20444;-75
2021/07/11 04:50:34;;;;;;;9.63;7.60;;;;;;;24.83;100.00;101010.41;5011764;28;20439;-73
2021/07/11 04:53:00;;;;;;;11.07;7.00;;;;;;;24.92;100.00;100998.53;5012132;28;20532;-71
2021/07/11 04:55:25;;;;;;;13.80;9.00;;;;;;;24.98;100.00;100992.41;5011790;28;20166;-77
2021/07/11 04:57:51;;;;;;;10.17;7.37;;;;;;;25.06;100.00;100999.53;5011803;28;20162;-72
2021/07/11 05:00:17;;;;;;;10.60;7.60;;;;;;;25.18;100.00;101000.72;5011842;28;20182;-71
2021/07/11 05:02:43;;;;;;;10.23;7.50;;;;;;;25.17;100.00;100997.19;5012067;28;20173;-71
2021/07/11 05:05:10;;;;;;;9.53;7.97;;;;;;;25.20;100.00;101000.50;5011128;28;20806;-72
2021/07/11 05:07:36;;;;;;;12.27;7.93;;;;;;;25.34;100.00;101002.31;5011288;28;20249;-71
2021/07/11 05:10:07;;;;;;;11.27;8.00;;;;;;;25.38;100.00;100992.81;5015342;28;20444;-72
2021/07/11 05:12:34;;;;;;;12.33;8.07;;;;;;;25.45;100.00;101001.78;5013685;28;20424;-72
2021/07/11 05:15:00;;;;;;;12.77;8.87;;;;;;;25.49;100.00;101000.38;4981536;28;20429;-76
2021/07/11 05:17:25;;;;;;;10.93;8.13;;;;;;;25.63;100.00;101001.31;5015166;28;20737;-74
2021/07/11 05:19:51;;;;;;;12.20;8.93;;;;;;;25.72;100.00;101008.25;4997720;28;20178;-72
2021/07/11 05:22:16;;;;;;;12.00;8.80;;;;;;;25.76;100.00;101000.59;5015315;28;20516;-72
2021/07/11 05:24:42;;;;;;;9.03;7.60;;;;;;;25.84;100.00;101003.97;5015350;28;20264;-71
2021/07/11 05:27:08;;;;;;;13.43;8.83;;;;;;;25.82;100.00;101008.75;5014908;28;20276;-71
2021/07/11 05:29:34;;;;;;;15.10;8.33;;;;;;;26.00;100.00;101008.25;5015316;28;20618;-74
2021/07/11 05:31:59;;;;;;;9.60;8.23;;;;;;;26.04;100.00;101001.44;5014780;28;20210;-72
2021/07/11 05:34:24;;;;;;;9.90;7.40;;;;;;;26.09;100.00;101007.06;5015017;28;20393;-72
2021/07/11 05:36:51;;;;;;;11.63;8.40;;;;;;;26.20;100.00;101009.19;5015049;28;20193;-72
2021/07/11 05:39:19;;;;;;;10.90;7.43;;;;;;;26.28;100.00;101009.03;5015043;28;20216;-72
2021/07/11 05:41:45;;;;;;;10.03;8.53;;;;;;;26.37;100.00;101006.19;5015088;28;20491;-71
2021/07/11 05:44:10;;;;;;;10.80;8.43;;;;;;;26.36;100.00;101007.22;5014636;28;20884;-73
2021/07/11 05:46:36;;;;;;;14.00;8.73;;;;;;;26.45;100.00;101008.75;5014773;28;20243;-74
2021/07/11 05:49:01;;;;;;;11.53;8.77;;;;;;;26.39;100.00;101005.00;5014870;28;20169;-71
2021/07/11 05:51:28;;;;;;;9.90;7.03;;;;;;;26.48;100.00;101003.78;5014465;28;20147;-72
2021/07/11 05:53:54;;;;;;;14.43;8.43;;;;;;;26.71;100.00;101010.72;5014380;28;20167;-72
2021/07/11 05:56:19;;;;;;;12.07;9.03;;;;;;;26.74;100.00;101007.63;5014219;28;20410;-75
2021/07/11 05:58:45;;;;;;;15.00;9.10;;;;;;;26.95;100.00;101007.50;5014101;28;20166;-75
2021/07/11 06:01:10;;;;;;;15.00;9.40;;;;;;;27.02;100.00;101007.50;5014441;28;20166;-72
2021/07/11 06:03:36;;;;;;;10.20;7.70;;;;;;;27.13;100.00;101019.59;5014365;28;20169;-71
2021/07/11 06:06:02;;;;;;;12.40;7.70;;;;;;;27.25;100.00;101004.47;5014300;28;20428;-71
2021/07/11 06:08:27;;;;;;;11.77;7.27;;;;;;;27.26;100.00;101003.44;5014065;28;20162;-72
2021/07/11 06:10:55;;;;;;;18.73;7.53;;;;;;;27.23;100.00;100999.28;5014253;28;20170;-71
2021/07/11 06:13:20;;;;;;;8.00;6.90;;;;;;;27.29;100.00;101011.97;5014110;28;20185;-72
2021/07/11 06:15:46;;;;;;;12.13;7.90;;;;;;;27.45;100.00;101008.03;5014309;28;20492;-72
2021/07/11 06:18:13;;;;;;;9.17;6.87;;;;;;;27.62;100.00;101001.16;5014097;28;20158;-73
2021/07/11 06:20:38;;;;;;;16.73;7.30;;;;;;;27.74;100.00;101003.28;5013864;28;20158;-73
2021/07/11 06:23:05;;;;;;;10.97;7.40;;;;;;;27.81;100.00;101004.09;5014097;28;20401;-71
2021/07/11 06:25:31;;;;;;;14.90;8.00;;;;;;;27.80;100.00;101000.56;5014108;28;20520;-72
2021/07/11 06:27:57;;;;;;;9.00;7.20;;;;;;;27.72;100.00;101003.47;5013570;28;20449;-73
2021/07/11 06:30:23;;;;;;;15.90;8.80;;;;;;;27.85;100.00;101006.19;5013793;28;20398;-72
2021/07/11 06:32:49;;;;;;;10.33;7.93;;;;;;;28.06;100.00;101002.41;5013615;28;20268;-73
2021/07/11 06:35:22;;;;;;;11.10;7.83;;;;;;;28.16;100.00;101001.97;5013682;28;20242;-73
2021/07/11 06:37:48;;;;;;;12.13;8.07;;;;;;;28.19;100.00;101002.38;5013474;28;20390;-75
2021/07/11 06:40:17;;;;;;;8.77;7.50;;;;;;;28.32;100.00;101006.09;5013872;28;20412;-73
2021/07/11 06:42:43;;;;;;;8.10;6.97;;;;;;;28.24;100.00;101004.44;5013587;28;20390;-73
2021/07/11 06:45:12;;;;;;;12.60;6.80;;;;;;;28.30;100.00;101003.63;5013556;28;20760;-72
2021/07/11 06:47:38;;;;;;;10.80;7.50;;;;;;;28.42;100.00;101006.50;5013231;28;20220;-73
2021/07/11 06:50:06;;;;;;;9.57;6.60;;;;;;;28.44;100.00;101010.66;5013617;28;20389;-72
2021/07/11 06:52:34;;;;;;;8.77;7.00;;;;;;;28.52;100.00;100989.81;4996201;28;20246;-75
2021/07/11 06:55:00;;;;;;;11.80;7.30;;;;;;;28.66;100.00;101002.25;5013488;28;20381;-72
2021/07/11 06:57:26;;;;;;;12.10;7.43;;;;;;;28.65;100.00;100996.00;5013351;28;20386;-74
2021/07/11 06:59:51;;;;;;;10.70;8.30;;;;;;;28.77;100.00;101003.44;5013034;28;20452;-75
2021/07/11 07:02:16;;;;;;;13.80;7.47;;;;;;;28.79;100.00;101004.88;5013282;28;20166;-71
2021/07/11 07:04:42;;;;;;;8.57;7.10;;;;;;;28.81;100.00;101005.50;5013309;28;20245;-75
2021/07/11 07:07:08;;;;;;;12.97;8.37;;;;;;;28.80;100.00;101005.72;5013164;28;20277;-72
2021/07/11 07:09:34;;;;;;;11.30;8.13;;;;;;;28.82;100.00;100999.03;5013052;28;20189;-71
2021/07/11 07:12:00;;;;;;;7.87;6.90;;;;;;;28.97;100.00;101002.31;5013005;28;20408;-72
2021/07/11 07:14:25;;;;;;;9.57;7.27;;;;;;;29.02;100.00;101004.38;5013344;28;20198;-76
2021/07/11 07:16:51;;;;;;;12.77;7.10;;;;;;;29.07;100.00;101009.13;5012966;28;20166;-71
2021/07/11 07:19:16;;;;;;;11.30;7.70;;;;;;;29.13;100.00;101002.84;5013043;28;20166;-73
2021/07/11 07:21:42;;;;;;;9.47;7.03;;;;;;;29.18;100.00;101009.28;5012889;28;20210;-73
2021/07/11 07:24:07;;;;;;;9.73;7.50;;;;;;;29.20;100.00;101003.63;5012773;28;20190;-74
2021/07/11 07:26:33;;;;;;;8.47;7.57;;;;;;;29.15;100.00;100998.03;5012698;28;20189;-74
2021/07/11 07:28:59;;;;;;;8.90;7.97;;;;;;;29.16;100.00;101007.81;5012538;28;20237;-73
2021/07/11 07:31:24;;;;;;;11.27;8.00;;;;;;;28.92;100.00;101010.25;5011717;28;20542;-73
2021/07/11 07:33:50;;;;;;;13.93;7.83;;;;;;;29.04;100.00;101012.28;5012985;28;20158;-73
2021/07/11 07:36:16;;;;;;;20.33;8.43;;;;;;;29.04;100.00;101004.16;5012998;28;20588;-71
2021/07/11 07:38:43;;;;;;;9.33;7.47;;;;;;;29.07;100.00;101007.25;5011003;28;20605;-73
2021/07/11 07:41:08;;;;;;;9.10;7.80;;;;;;;29.18;100.00;101016.56;5011793;28;20422;-75
2021/07/11 07:43:34;;;;;;;12.53;7.60;;;;;;;29.10;100.00;101019.53;5013741;28;20402;-73
2021/07/11 07:45:59;;;;;;;9.00;7.60;;;;;;;29.10;100.00;101012.25;5011840;28;20158;-74
2021/07/11 07:48:25;;;;;;;13.03;8.27;;;;;;;29.20;100.00;101011.75;5008411;28;20652;-75
2021/07/11 07:50:51;;;;;;;10.80;8.13;;;;;;;29.09;100.00;101007.03;5011616;28;20173;-76
2021/07/11 07:53:17;;;;;;;10.20;8.13;;;;;;;29.21;100.00;101000.69;5007502;28;20838;-72
2021/07/11 07:55:43;;;;;;;10.47;8.60;;;;;;;29.36;100.00;101005.81;4991681;28;20528;-71
2021/07/11 07:58:08;;;;;;;10.00;7.93;;;;;;;29.46;100.00;101005.31;5011428;28;20170;-74
2021/07/11 08:00:34;;;;;;;13.83;9.70;;;;;;;29.57;100.00;101010.06;5010556;28;20220;-72
2021/07/11 08:03:00;;;;;;;9.77;8.77;;;;;;;29.59;100.00;101007.94;5011294;28;20581;-73
2021/07/11 08:05:26;;;;;;;11.13;8.47;;;;;;;29.58;100.00;101008.19;5010770;28;20158;-70
2021/07/11 08:07:52;;;;;;;13.70;8.00;;;;;;;29.55;100.00;101007.56;5008497;28;20186;-70
2021/07/11 08:10:17;;;;;;;12.40;7.80;;;;;;;29.53;100.00;101006.94;5011005;28;20456;-74
2021/07/11 08:12:44;;;;;;;10.73;7.77;;;;;;;29.62;100.00;101014.78;5010107;28;20162;-74
2021/07/11 08:15:16;;;;;;;10.67;8.03;;;;;;;29.63;100.00;101013.78;5011560;28;20169;-74
2021/07/11 08:17:45;;;;;;;10.30;8.17;;;;;;;29.64;100.00;101007.28;5010934;28;20400;-73
2021/07/11 08:20:12;;;;;;;12.40;8.33;;;;;;;29.72;100.00;101015.13;5011088;28;20868;-68
2021/07/11 08:22:38;;;;;;;10.47;7.90;;;;;;;29.74;100.00;101018.44;5018988;28;20502;-70
2021/07/11 08:25:07;;;;;;;10.13;7.50;;;;;;;29.72;100.00;101015.97;5009404;28;20405;-70
2021/07/11 08:27:32;;;;;;;11.13;8.47;;;;;;;29.66;100.00;101008.72;5010888;28;20874;-71
2021/07/11 08:29:58;;;;;;;9.10;7.20;;;;;;;29.58;100.00;101011.72;5010156;28;20405;-72
2021/07/11 08:32:23;;;;;;;14.60;7.57;;;;;;;29.68;100.00;101019.34;4996990;28;20225;-74
2021/07/11 08:34:49;;;;;;;17.90;9.70;;;;;;;29.68;100.00;101022.03;5005852;28;20177;-74
2021/07/11 08:37:15;;;;;;;11.43;7.93;;;;;;;29.70;100.00;101019.94;5010852;28;20174;-67
2021/07/11 08:39:40;;;;;;;10.97;8.80;;;;;;;29.76;100.00;101025.28;5009730;28;20158;-72
2021/07/11 08:42:09;;;;;;;11.67;8.00;;;;;;;29.80;100.00;101023.00;5004979;28;20263;-71
2021/07/11 08:44:35;;;;;;;11.27;8.77;;;;;;;29.91;100.00;101016.81;5015515;28;20181;-74
2021/07/11 08:47:00;;;;;;;12.50;8.90;;;;;;;29.93;100.00;101017.44;5017893;28;20582;-73
2021/07/11 08:49:26;;;;;;;11.97;8.27;;;;;;;29.84;100.00;101021.47;5020795;28;21021;-72
2021/07/11 08:52:00;;;;;;;11.43;8.40;;;;;;;29.75;100.00;101026.34;5014066;28;20224;-69
2021/07/11 08:54:26;;;;;;;9.77;8.40;;;;;;;29.84;100.00;101022.31;4999342;28;20522;-71
2021/07/11 08:56:59;;;;;;;18.83;9.30;;;;;;;29.65;100.00;101026.03;5020032;28;20992;-73
2021/07/11 08:59:27;;;;;;;13.43;8.80;;;;;;;29.71;100.00;101027.88;5001085;28;20435;-71
2021/07/11 09:01:54;;;;;;;11.00;8.20;;;;;;;29.75;100.00;101017.41;5013470;28;20515;-70
2021/07/11 09:04:20;;;;;;;12.30;8.10;;;;;;;29.77;100.00;101023.41;5022215;28;20425;-72
2021/07/11 09:06:49;;;;;;;12.77;8.80;;;;;;;29.78;100.00;101025.09;5026269;28;20451;-72
2021/07/11 09:09:26;;;;;;;11.43;8.27;;;;;;;29.77;100.00;101026.94;5017301;28;20433;-73
2021/07/11 09:11:55;;;;;;;13.10;8.87;;;;;;;29.93;100.00;101024.75;5018997;28;20837;-72
2021/07/11 09:14:23;;;;;;;9.77;8.77;;;;;;;30.00;100.00;101018.22;5019902;28;20500;-73
2021/07/11 09:16:51;;;;;;;11.60;9.53;;;;;;;30.07;100.00;101018.94;5027420;28;20462;-72
2021/07/11 09:19:41;;;;;;;10.30;8.87;;;;;;;30.19;100.00;101020.97;5016757;28;20944;-74
2021/07/11 09:22:11;;;;;;;15.27;8.57;;;;;;;30.27;100.00;101026.09;5019345;28;20870;-71
2021/07/11 09:24:46;;;;;;;14.13;9.23;;;;;;;30.32;100.00;101020.81;5023719;28;20421;-71
2021/07/11 09:27:15;;;;;;;9.80;8.77;;;;;;;30.43;100.00;101020.06;5014073;28;20478;-75
2021/07/11 09:29:42;;;;;;;14.50;9.37;;;;;;;30.23;100.00;101016.72;5017768;28;20429;-72
2021/07/11 09:32:20;;;;;;;10.53;9.13;;;;;;;30.32;100.00;101016.22;5022440;28;20464;-70
2021/07/11 09:34:46;;;;;;;15.03;9.07;;;;;;;30.33;100.00;101023.31;5027093;28;20483;-73
2021/07/11 09:37:15;;;;;;;11.10;9.13;;;;;;;30.35;100.00;101014.94;5023033;28;20421;-71
2021/07/11 09:39:49;;;;;;;14.53;8.57;;;;;;;30.24;100.00;101013.81;5016626;28;20265;-73
2021/07/11 09:42:28;;;;;;;9.80;8.00;;;;;;;30.38;100.00;101017.22;5014390;28;20962;-72
2021/07/11 09:44:54;;;;;;;10.70;8.23;;;;;;;30.40;100.00;101015.09;5014114;28;20899;-71
2021/07/11 09:47:22;;;;;;;11.10;8.33;;;;;;;30.44;100.00;101019.00;5015749;28;20542;-72
2021/07/11 09:50:10;;;;;;;15.23;8.53;;;;;;;30.51;100.00;101025.19;5012644;28;20635;-73
2021/07/11 09:52:40;;;;;;;10.10;8.93;;;;;;;30.49;100.00;101026.47;5006584;28;20563;-75
2021/07/11 09:55:08;;;;;;;9.70;8.70;;;;;;;30.64;100.00;101029.63;5020024;28;20437;-75
2021/07/11 09:57:49;;;;;;;10.43;8.80;;;;;;;30.71;100.00;101018.72;5014579;28;20459;-73
2021/07/11 10:00:27;;;;;;;10.03;8.20;;;;;;;30.82;100.00;101021.47;5023103;28;20412;-74
2021/07/11 10:02:55;;;;;;;10.83;8.13;;;;;;;30.87;100.00;101016.19;5022497;28;20507;-72
2021/07/11 10:05:21;;;;;;;12.33;7.80;;;;;;;30.85;100.00;101012.88;5015166;28;20475;-73
2021/07/11 10:07:49;;;;;;;13.00;8.83;;;;;;;31.04;100.00;101013.66;5024278;28;20445;-71
2021/07/11 10:10:16;;;;;;;9.30;8.30;;;;;;;31.38;100.00;101008.59;5020396;28;20934;-71
2021/07/11 10:12:43;;;;;;;10.03;7.97;;;;;;;31.78;100.00;100999.78;5023477;28;20524;-72
2021/07/11 10:15:12;;;;;;;8.93;8.03;;;;;;;31.95;100.00;100992.56;5014423;28;20461;-73
2021/07/11 10:17:44;;;;;;;11.23;7.70;;;;;;;31.94;100.00;100996.34;5016784;28;20420;-73
2021/07/11 10:20:11;;;;;;;10.07;7.23;;;;;;;31.97;100.00;100990.47;5013592;28;20494;-72
2021/07/11 10:22:50;;;;;;;12.10;7.53;;;;;;;31.89;100.00;100982.63;5015972;28;20567;-74
2021/07/11 10:25:22;;;;;;;14.93;8.80;;;;;;;31.61;100.00;100977.91;5018107;28;20429;-70
2021/07/11 10:28:02;;;;;;;11.93;8.40;;;;;;;31.62;100.00;100974.94;5024613;28;20458;-73
2021/07/11 10:30:32;;;;;;;9.30;6.80;;;;;;;31.39;100.00;100977.66;5012747;28;20406;-72
2021/07/11 10:33:19;;;;;;;9.23;7.10;;;;;;;31.41;100.00;100967.38;5023008;28;20460;-73
2021/07/11 10:36:07;;;;;;;16.23;8.10;;;;;;;31.26;100.00;100972.41;5020926;28;20453;-72
2021/07/11 10:38:39;;;;;;;10.20;7.90;;;;;;;31.38;100.00;100970.56;4994222;28;20417;-72
2021/07/11 10:41:12;;;;;;;11.97;8.27;;;;;;;31.38;100.00;100960.53;5015923;28;20969;-72
2021/07/11 10:43:38;;;;;;;11.17;8.00;;;;;;;31.35;100.00;100954.72;5023324;28;20417;-73
2021/07/11 10:46:04;;;;;;;14.10;8.20;;;;;;;31.30;100.00;100947.28;5013463;28;20421;-72
2021/07/11 10:48:31;;;;;;;15.57;11.97;;;;;;;31.09;100.00;100945.91;5026081;28;20459;-74
2021/07/11 10:50:58;;;;;;;10.80;8.00;;;;;;;31.25;100.00;100949.03;5013934;28;20445;-70
2021/07/11 10:53:29;;;;;;;10.23;7.03;;;;;;;31.38;100.00;100943.41;5028546;28;20455;-72
2021/07/11 10:55:55;;;;;;;8.47;7.27;;;;;;;31.28;100.00;100943.97;5012518;28;20523;-72
2021/07/11 10:58:21;;;;;;;11.63;7.83;;;;;;;31.26;100.00;100950.69;5022150;28;20428;-71
2021/07/11 11:00:48;;;;;;;11.30;8.23;;;;;;;31.40;100.00;100952.94;5016608;28;20459;-72
2021/07/11 11:03:26;;;;;;;8.23;7.00;;;;;;;31.43;100.00;100954.38;5022450;28;20181;-73
2021/07/11 11:05:52;;;;;;;11.13;8.20;;;;;;;31.26;100.00;100947.97;5020811;28;20431;-71
2021/07/11 11:08:23;;;;;;;9.60;6.97;;;;;;;31.34;100.00;100947.63;5014131;28;20523;-72
2021/07/11 11:10:53;;;;;;;9.80;8.10;;;;;;;31.48;100.00;100952.59;5011508;28;20400;-73
2021/07/11 11:13:19;;;;;;;8.83;6.73;;;;;;;31.58;100.00;100943.84;5015118;28;20432;-73